createdAt,value
2023-04-19T00:00:35.471Z,15.57
2023-04-19T00:03:03.114Z,14.90
2023-04-19T00:05:30.061Z,15.77
2023-04-19T00:07:56.951Z,15.10
2023-04-19T00:10:23.985Z,15.43
2023-04-19T00:12:50.749Z,15.53
2023-04-19T00:15:17.877Z,14.93
2023-04-19T00:17:45.060Z,15.90
2023-04-19T00:20:13.468Z,15.90
2023-04-19T00:22:41.639Z,16.43
2023-04-19T00:25:08.693Z,16.57
2023-04-19T00:27:36.274Z,16.50
2023-04-19T00:30:03.366Z,15.20
2023-04-19T00:32:31.091Z,15.83
2023-04-19T00:34:57.933Z,15.10
2023-04-19T00:37:24.854Z,16.63
2023-04-19T00:39:51.721Z,16.03
2023-04-19T00:42:19.409Z,16.67
2023-04-19T00:44:47.050Z,16.50
2023-04-19T00:47:15.561Z,16.47
2023-04-19T00:49:42.351Z,16.27
2023-04-19T00:52:09.982Z,16.33
2023-04-19T00:54:37.852Z,15.50
2023-04-19T00:57:04.797Z,16.33
2023-04-19T00:59:31.760Z,16.80
2023-04-19T01:01:58.833Z,16.27
2023-04-19T01:04:29.596Z,15.80
2023-04-19T01:06:56.491Z,16.70
2023-04-19T01:09:23.418Z,15.83
2023-04-19T01:11:50.978Z,16.10
2023-04-19T01:14:18.068Z,15.53
2023-04-19T01:16:46.704Z,14.87
2023-04-19T01:19:13.493Z,15.03
2023-04-19T01:21:40.657Z,15.13
2023-04-19T01:24:07.501Z,15.97
2023-04-19T01:26:34.293Z,16.07
2023-04-19T01:29:02.770Z,15.60
2023-04-19T01:31:29.529Z,15.47
2023-04-19T01:33:56.386Z,15.70
2023-04-19T01:36:23.344Z,16.30
2023-04-19T01:38:50.450Z,15.70
2023-04-19T01:41:17.505Z,15.40
2023-04-19T01:43:44.367Z,14.77
2023-04-19T01:46:11.394Z,14.53
2023-04-19T01:48:38.229Z,16.00
2023-04-19T01:51:05.197Z,15.67
2023-04-19T01:53:34.503Z,14.67
2023-04-19T01:56:01.461Z,16.07
2023-04-19T01:58:28.161Z,14.70
2023-04-19T02:00:55.260Z,14.90
2023-04-19T02:03:22.356Z,15.93
2023-04-19T02:05:49.668Z,14.77
2023-04-19T02:08:16.926Z,15.03
2023-04-19T02:10:43.719Z,14.20
2023-04-19T02:13:10.576Z,14.27
2023-04-19T02:15:37.624Z,14.80
2023-04-19T02:18:07.064Z,14.47
2023-04-19T02:20:34.293Z,14.00
2023-04-19T02:23:01.044Z,14.57
2023-04-19T02:25:28.062Z,14.40
2023-04-19T02:27:55.097Z,15.40
2023-04-19T02:30:22.253Z,14.40
2023-04-19T02:32:50.585Z,14.23
2023-04-19T02:35:17.646Z,15.03
2023-04-19T02:37:44.644Z,14.13
2023-04-19T02:40:12.264Z,14.33
2023-04-19T02:42:39.129Z,13.83
2023-04-19T02:45:06.772Z,13.60
2023-04-19T02:47:33.543Z,14.13
2023-04-19T02:50:00.595Z,13.47
2023-04-19T02:52:27.941Z,14.30
2023-04-19T02:54:55.523Z,13.73
2023-04-19T02:57:22.438Z,13.93
2023-04-19T02:59:49.500Z,13.47
2023-04-19T03:02:16.667Z,13.43
2023-04-19T03:04:44.202Z,13.40
2023-04-19T03:07:11.351Z,13.93
2023-04-19T03:09:39.728Z,14.00
2023-04-19T03:12:08.243Z,13.97
2023-04-19T03:14:34.996Z,13.03
2023-04-19T03:17:02.010Z,13.03
2023-04-19T03:19:29.526Z,12.83
2023-04-19T03:21:57.013Z,13.57
2023-04-19T03:24:30.566Z,12.53
2023-04-19T03:26:59.534Z,13.07
2023-04-19T03:29:29.514Z,13.43
2023-04-19T03:32:11.532Z,11.73
2023-04-19T03:34:38.511Z,13.23
2023-04-19T03:37:05.321Z,12.43
2023-04-19T03:39:32.810Z,12.80
2023-04-19T03:42:03.703Z,12.70
2023-04-19T03:44:42.827Z,13.70
2023-04-19T03:47:10.546Z,12.33
2023-04-19T03:49:42.970Z,13.10
2023-04-19T03:52:10.257Z,13.20
2023-04-19T03:54:37.229Z,13.37
2023-04-19T03:57:07.797Z,13.50
2023-04-19T03:59:38.389Z,13.47
2023-04-19T04:02:06.987Z,13.50
2023-04-19T04:04:34.243Z,13.20
2023-04-19T04:07:01.644Z,13.60
2023-04-19T04:09:28.584Z,13.20
2023-04-19T04:11:55.510Z,13.83
2023-04-19T04:14:22.502Z,14.20
2023-04-19T04:16:49.774Z,12.23
2023-04-19T04:19:17.432Z,13.37
2023-04-19T04:21:44.994Z,13.73
2023-04-19T04:24:12.609Z,14.03
2023-04-19T04:26:54.447Z,14.00
2023-04-19T04:29:29.091Z,13.87
2023-04-19T04:31:58.968Z,14.13
2023-04-19T04:34:31.450Z,14.13
2023-04-19T04:37:05.847Z,13.03
2023-04-19T04:39:35.204Z,14.47
2023-04-19T04:42:03.283Z,14.33
2023-04-19T04:44:30.086Z,13.57
2023-04-19T04:46:57.060Z,14.43
2023-04-19T04:49:27.155Z,14.33
2023-04-19T04:51:53.894Z,14.07
2023-04-19T04:54:24.310Z,14.10
2023-04-19T04:56:51.808Z,14.70
2023-04-19T04:59:19.164Z,13.97
2023-04-19T05:01:48.916Z,15.23
2023-04-19T05:04:16.860Z,14.50
2023-04-19T05:06:44.686Z,14.83
2023-04-19T05:09:13.160Z,14.23
2023-04-19T05:11:40.191Z,15.63
2023-04-19T05:14:07.019Z,14.50
2023-04-19T05:16:34.560Z,14.40
2023-04-19T05:19:03.006Z,15.60
2023-04-19T05:21:34.997Z,15.93
2023-04-19T05:24:04.444Z,14.40
2023-04-19T05:26:33.270Z,15.27
2023-04-19T05:29:00.786Z,14.40
2023-04-19T05:31:47.847Z,14.27
2023-04-19T05:34:28.038Z,15.53
2023-04-19T05:36:56.758Z,15.20
2023-04-19T05:39:23.817Z,15.13
2023-04-19T05:41:52.231Z,14.67
2023-04-19T05:44:19.124Z,15.30
2023-04-19T05:46:45.975Z,15.33
2023-04-19T05:49:17.517Z,16.27
2023-04-19T05:52:14.166Z,15.37
2023-04-19T05:54:47.420Z,15.40
2023-04-19T05:57:14.600Z,14.60
2023-04-19T05:59:41.486Z,15.23
2023-04-19T06:02:09.831Z,14.93
2023-04-19T06:04:37.386Z,15.27
2023-04-19T06:07:06.148Z,16.00
2023-04-19T06:09:35.104Z,15.00
2023-04-19T06:12:02.053Z,14.37
2023-04-19T06:14:29.724Z,14.30
2023-04-19T06:16:57.181Z,14.10
2023-04-19T06:19:24.297Z,14.20
2023-04-19T06:21:51.411Z,15.67
2023-04-19T06:24:18.465Z,14.77
2023-04-19T06:26:45.740Z,14.53
2023-04-19T06:29:12.719Z,14.77
2023-04-19T06:31:39.967Z,13.13
2023-04-19T06:34:06.751Z,13.77
2023-04-19T06:36:33.947Z,13.87
2023-04-19T06:39:00.779Z,13.53
2023-04-19T06:41:27.668Z,12.73
2023-04-19T06:43:54.488Z,14.20
2023-04-19T06:46:21.499Z,14.23
2023-04-19T06:48:48.345Z,14.87
2023-04-19T06:51:15.272Z,13.70
2023-04-19T06:53:42.050Z,13.17
2023-04-19T06:56:10.497Z,13.13
2023-04-19T06:58:37.390Z,14.37
2023-04-19T07:01:04.857Z,12.93
2023-04-19T07:03:32.368Z,12.77
2023-04-19T07:05:59.541Z,13.27
2023-04-19T07:08:42.302Z,13.30
2023-04-19T07:11:20.253Z,11.67
2023-04-19T07:13:47.903Z,12.77
2023-04-19T07:16:15.235Z,11.67
2023-04-19T07:18:44.216Z,12.63
2023-04-19T07:21:12.155Z,12.90
2023-04-19T07:23:40.706Z,11.90
2023-04-19T07:26:10.969Z,10.90
2023-04-19T07:28:45.184Z,11.50
2023-04-19T07:31:18.705Z,12.13
2023-04-19T07:33:46.346Z,11.40
2023-04-19T07:36:13.677Z,11.47
2023-04-19T07:38:41.496Z,10.70
2023-04-19T07:41:09.213Z,10.30
2023-04-19T07:43:39.128Z,10.70
2023-04-19T07:46:13.844Z,10.60
2023-04-19T07:48:41.006Z,9.73
2023-04-19T07:51:16.577Z,10.30
2023-04-19T07:53:44.228Z,9.83
2023-04-19T07:56:13.030Z,9.57
2023-04-19T07:58:41.508Z,9.77
2023-04-19T08:01:08.952Z,10.27
2023-04-19T08:03:36.488Z,9.27
2023-04-19T08:06:09.821Z,10.23
2023-04-19T08:08:37.552Z,9.07
2023-04-19T08:11:06.649Z,9.17
2023-04-19T08:13:39.951Z,9.83
2023-04-19T08:16:41.812Z,9.37
2023-04-19T08:19:04.242Z,9.57
2023-04-19T08:21:42.194Z,10.93
2023-04-19T08:24:20.532Z,9.77
2023-04-19T08:27:01.758Z,9.00
2023-04-19T08:29:52.979Z,9.47
2023-04-19T08:32:29.605Z,9.60
2023-04-19T08:34:59.469Z,9.13
2023-04-19T08:37:26.567Z,9.20
2023-04-19T08:39:55.153Z,8.80
2023-04-19T08:42:33.001Z,8.97
2023-04-19T08:47:44.839Z,8.83
2023-04-19T08:50:32.453Z,8.43
2023-04-19T08:53:21.041Z,8.90
2023-04-19T08:58:30.774Z,8.57
2023-04-19T09:01:26.223Z,8.83
2023-04-19T09:04:10.431Z,8.10
2023-04-19T09:06:49.569Z,7.60
2023-04-19T09:09:33.940Z,7.40
2023-04-19T09:12:04.982Z,7.77
2023-04-19T09:14:32.121Z,7.43
2023-04-19T09:17:17.908Z,8.17
2023-04-19T09:19:49.556Z,7.27
2023-04-19T09:22:18.063Z,6.83
2023-04-19T09:25:22.797Z,6.90
2023-04-19T09:27:36.677Z,7.47
2023-04-19T09:30:05.294Z,6.87
2023-04-19T09:32:47.764Z,6.70
2023-04-19T09:35:17.213Z,6.80
2023-04-19T09:38:05.383Z,6.50
2023-04-19T09:40:34.204Z,5.93
2023-04-19T09:43:23.093Z,5.80
2023-04-19T09:45:50.333Z,5.97
2023-04-19T09:48:17.272Z,6.07
2023-04-19T09:51:02.321Z,5.27
2023-04-19T09:53:35.379Z,5.37
2023-04-19T09:56:03.898Z,4.90
2023-04-19T09:58:46.156Z,5.37
2023-04-19T10:01:22.592Z,4.90
2023-04-19T10:03:55.957Z,4.87
2023-04-19T10:08:56.104Z,5.40
2023-04-19T10:11:23.835Z,5.53
2023-04-19T10:13:56.871Z,5.27
2023-04-19T10:16:24.765Z,5.20
2023-04-19T10:18:53.325Z,4.70
2023-04-19T10:21:21.275Z,4.87
2023-04-19T10:23:48.669Z,4.90
2023-04-19T10:26:16.324Z,4.83
2023-04-19T10:28:43.420Z,4.80
2023-04-19T10:31:13.438Z,5.27
2023-04-19T10:33:41.801Z,5.53
2023-04-19T10:36:10.997Z,6.17
2023-04-19T10:38:55.834Z,4.97
2023-04-19T10:41:23.175Z,4.53
2023-04-19T10:43:59.153Z,6.20
2023-04-19T10:46:26.503Z,5.20
2023-04-19T10:49:00.981Z,5.33
2023-04-19T10:51:37.080Z,5.37
2023-04-19T10:54:07.858Z,4.90
2023-04-19T11:02:56.979Z,5.73
2023-04-19T11:05:32.228Z,5.37
2023-04-19T11:07:59.436Z,5.17
2023-04-19T11:10:36.134Z,5.70
2023-04-19T11:15:45.716Z,5.27
2023-04-19T11:21:52.082Z,5.50
2023-04-19T11:24:21.698Z,5.63
2023-04-19T11:26:55.560Z,5.57
2023-04-19T11:29:54.742Z,5.83
2023-04-19T11:32:22.885Z,5.90
2023-04-19T11:34:49.951Z,5.70
2023-04-19T11:37:17.075Z,4.87
2023-04-19T11:39:48.319Z,5.70
2023-04-19T11:42:20.495Z,5.30
2023-04-19T11:44:53.352Z,5.60
2023-04-19T11:47:21.381Z,5.40
2023-04-19T11:49:48.375Z,5.23
2023-04-19T11:52:22.175Z,5.43
2023-04-19T11:54:50.790Z,5.80
2023-04-19T11:57:42.295Z,5.73
2023-04-19T12:00:13.148Z,4.93
2023-04-19T12:02:42.630Z,5.73
2023-04-19T12:05:14.741Z,4.50
2023-04-19T12:08:04.164Z,4.23
2023-04-19T12:10:32.288Z,4.43
2023-04-19T12:12:59.436Z,4.50
2023-04-19T12:15:45.741Z,4.30
2023-04-19T12:18:13.159Z,4.27
2023-04-19T12:20:46.872Z,4.10
2023-04-19T12:23:15.733Z,4.10
2023-04-19T12:25:55.174Z,3.80
2023-04-19T12:28:25.503Z,3.93
2023-04-19T12:30:53.161Z,3.23
2023-04-19T12:33:21.214Z,3.37
2023-04-19T12:35:49.590Z,4.20
2023-04-19T12:38:17.575Z,3.97
2023-04-19T12:40:46.023Z,3.63
2023-04-19T12:43:18.816Z,3.10
2023-04-19T12:48:40.313Z,3.47
2023-04-19T12:51:07.953Z,3.87
2023-04-19T12:53:35.312Z,3.00
2023-04-19T12:56:04.240Z,2.67
2023-04-19T12:58:32.312Z,3.70
2023-04-19T13:01:01.654Z,2.90
2023-04-19T13:03:33.448Z,3.20
2023-04-19T13:06:01.218Z,4.27
2023-04-19T13:08:43.411Z,3.97
2023-04-19T13:11:12.706Z,4.10
2023-04-19T13:13:39.506Z,3.93
2023-04-19T13:16:08.081Z,3.63
2023-04-19T13:18:35.291Z,3.80
2023-04-19T13:21:02.469Z,4.10
2023-04-19T13:23:29.674Z,4.27
2023-04-19T13:25:56.819Z,2.70
2023-04-19T13:28:24.400Z,3.00
2023-04-19T13:30:51.416Z,3.40
2023-04-19T13:33:18.819Z,2.80
2023-04-19T13:35:46.246Z,2.87
2023-04-19T13:38:13.178Z,2.40
2023-04-19T13:40:40.186Z,2.57
2023-04-19T13:43:07.190Z,2.50
2023-04-19T13:45:34.165Z,1.77
2023-04-19T13:48:01.152Z,2.20
2023-04-19T13:50:28.740Z,2.13
2023-04-19T13:52:55.669Z,1.80
2023-04-19T13:55:22.533Z,2.00
2023-04-19T13:57:49.401Z,2.07
2023-04-19T14:00:16.660Z,2.20
2023-04-19T14:02:45.429Z,2.10
2023-04-19T14:05:12.495Z,2.10
2023-04-19T14:07:40.629Z,1.47
2023-04-19T14:10:09.124Z,1.70
2023-04-19T14:12:36.324Z,1.60
2023-04-19T14:15:04.199Z,1.60
2023-04-19T14:17:31.105Z,1.67
2023-04-19T14:19:57.966Z,1.63
2023-04-19T14:22:24.996Z,1.90
2023-04-19T14:24:52.016Z,1.90
2023-04-19T14:27:25.242Z,2.17
2023-04-19T14:29:52.092Z,2.13
2023-04-19T14:32:25.858Z,2.40
2023-04-19T14:34:54.102Z,2.20
2023-04-19T14:37:21.729Z,1.90
2023-04-19T14:39:48.880Z,2.13
2023-04-19T14:42:16.590Z,2.37
2023-04-19T14:44:43.999Z,2.20
2023-04-19T14:47:11.539Z,2.13
2023-04-19T14:49:38.452Z,2.40
2023-04-19T14:52:05.886Z,2.40
2023-04-19T14:54:32.885Z,2.10
2023-04-19T14:57:00.041Z,2.20
2023-04-19T14:59:29.403Z,1.67
2023-04-19T15:01:57.064Z,1.60
2023-04-19T15:04:24.187Z,1.80
2023-04-19T15:06:51.229Z,1.80
2023-04-19T15:09:18.552Z,1.63
2023-04-19T15:11:45.758Z,1.60
2023-04-19T15:14:12.557Z,1.80
2023-04-19T15:16:39.492Z,2.00
2023-04-19T15:19:07.716Z,2.30
2023-04-19T15:21:35.023Z,2.30
2023-04-19T15:24:01.915Z,1.90
2023-04-19T15:26:28.948Z,1.80
2023-04-19T15:28:56.573Z,2.23
2023-04-19T15:31:25.293Z,2.20
2023-04-19T15:33:52.682Z,2.10
2023-04-19T15:36:19.599Z,2.00
2023-04-19T15:38:46.532Z,2.33
2023-04-19T15:41:13.356Z,2.30
2023-04-19T15:43:40.839Z,1.90
2023-04-19T15:46:11.969Z,2.30
2023-04-19T15:48:39.309Z,1.80
2023-04-19T15:51:07.199Z,2.00
2023-04-19T15:53:34.558Z,2.00
2023-04-19T15:56:01.542Z,2.23
2023-04-19T15:58:28.574Z,2.83
2023-04-19T16:00:55.444Z,2.17
2023-04-19T16:03:22.488Z,1.93
2023-04-19T16:05:51.722Z,1.67
2023-04-19T16:08:21.859Z,2.03
2023-04-19T16:10:49.289Z,2.20
2023-04-19T16:13:16.697Z,1.90
2023-04-19T16:15:44.419Z,2.00
2023-04-19T16:18:13.117Z,2.07
2023-04-19T16:20:43.063Z,2.23
2023-04-19T16:23:10.085Z,1.90
2023-04-19T16:25:41.679Z,2.63
2023-04-19T16:28:08.469Z,2.33
2023-04-19T16:30:35.432Z,2.30
2023-04-19T16:33:02.502Z,2.00
2023-04-19T16:35:29.440Z,1.90
2023-04-19T16:37:57.802Z,2.20
2023-04-19T16:40:24.924Z,2.10
2023-04-19T16:42:51.940Z,2.30
2023-04-19T16:45:19.103Z,2.40
2023-04-19T16:47:46.326Z,2.30
2023-04-19T16:50:14.303Z,2.20
2023-04-19T16:52:41.802Z,2.30
2023-04-19T16:55:09.536Z,2.40
2023-04-19T16:57:37.042Z,2.60
2023-04-19T17:00:06.072Z,3.00
2023-04-19T17:02:33.737Z,2.50
2023-04-19T17:05:03.632Z,2.57
2023-04-19T17:07:30.465Z,2.50
2023-04-19T17:09:59.040Z,2.40
2023-04-19T17:12:26.078Z,2.60
2023-04-19T17:14:52.933Z,2.77
2023-04-19T17:17:21.463Z,2.77
2023-04-19T17:19:48.370Z,3.10
2023-04-19T17:22:16.343Z,2.87
2023-04-19T17:24:43.333Z,2.90
2023-04-19T17:27:10.733Z,2.57
2023-04-19T17:29:37.907Z,2.60
2023-04-19T17:32:06.432Z,3.20
2023-04-19T17:34:36.990Z,2.70
2023-04-19T17:37:05.019Z,3.30
2023-04-19T17:39:34.071Z,3.13
2023-04-19T17:42:02.052Z,3.20
2023-04-19T17:44:28.991Z,2.90
2023-04-19T17:46:57.104Z,3.50
2023-04-19T17:49:24.961Z,3.50
2023-04-19T17:51:53.220Z,3.30
2023-04-19T17:54:20.811Z,2.70
2023-04-19T17:56:47.719Z,3.27
2023-04-19T17:59:14.863Z,3.10
2023-04-19T18:01:41.866Z,2.97
2023-04-19T18:04:09.084Z,3.40
2023-04-19T18:06:36.148Z,3.40
2023-04-19T18:09:03.275Z,3.47
2023-04-19T18:11:30.346Z,3.10
2023-04-19T18:13:57.305Z,3.00
2023-04-19T18:16:24.627Z,3.00
2023-04-19T18:18:51.559Z,3.20
2023-04-19T18:21:18.734Z,3.10
2023-04-19T18:23:45.914Z,2.90
2023-04-19T18:26:12.814Z,3.10
2023-04-19T18:28:42.497Z,2.90
2023-04-19T18:31:09.612Z,3.13
2023-04-19T18:33:36.579Z,3.03
2023-04-19T18:36:04.211Z,3.50
2023-04-19T18:38:31.180Z,2.63
2023-04-19T18:40:58.706Z,2.93
2023-04-19T18:43:26.357Z,3.40
2023-04-19T18:45:56.936Z,3.03
2023-04-19T18:48:29.466Z,3.10
2023-04-19T18:50:57.320Z,2.60
2023-04-19T18:53:27.755Z,3.17
2023-04-19T18:55:58.522Z,2.70
2023-04-19T18:58:29.503Z,2.73
2023-04-19T19:00:57.095Z,3.13
2023-04-19T19:05:55.970Z,2.70
2023-04-19T19:08:22.913Z,2.73
2023-04-19T19:11:14.282Z,2.90
2023-04-19T19:13:37.087Z,2.90
2023-04-19T19:16:05.610Z,2.97
2023-04-19T19:18:33.267Z,2.50
2023-04-19T19:21:03.292Z,2.80
2023-04-19T19:23:35.899Z,2.70
2023-04-19T19:26:06.335Z,3.10
2023-04-19T19:28:36.227Z,2.80
2023-04-19T19:31:03.164Z,2.97
2023-04-19T19:33:32.017Z,2.60
2023-04-19T19:35:59.528Z,3.27
2023-04-19T19:38:26.265Z,2.97
2023-04-19T19:41:30.927Z,2.80
2023-04-19T19:43:40.637Z,3.47
2023-04-19T19:46:08.066Z,3.20
2023-04-19T19:48:40.749Z,3.30
2023-04-19T19:51:36.230Z,2.40
2023-04-19T19:53:56.729Z,2.73
2023-04-19T19:56:24.504Z,3.43
2023-04-19T19:58:52.143Z,2.97
2023-04-19T20:01:22.366Z,2.47
2023-04-19T20:03:50.323Z,2.47
2023-04-19T20:07:03.401Z,2.90
2023-04-19T20:09:04.660Z,2.67
2023-04-19T20:11:31.498Z,2.53
2023-04-19T20:13:58.239Z,2.47
2023-04-19T20:16:25.302Z,2.40
2023-04-19T20:18:52.725Z,2.70
2023-04-19T20:21:20.788Z,2.30
2023-04-19T20:23:47.660Z,2.60
2023-04-19T20:26:14.469Z,2.30
2023-04-19T20:28:41.626Z,1.90
2023-04-19T20:31:08.852Z,2.40
2023-04-19T20:33:35.644Z,2.27
2023-04-19T20:36:03.751Z,2.10
2023-04-19T20:38:31.959Z,2.00
2023-04-19T20:40:58.722Z,1.90
2023-04-19T20:43:25.567Z,2.20
2023-04-19T20:45:52.486Z,2.50
2023-04-19T20:48:19.363Z,1.90
2023-04-19T20:50:46.148Z,2.23
2023-04-19T20:53:12.936Z,1.90
2023-04-19T20:55:40.050Z,2.17
2023-04-19T20:58:06.791Z,2.13
2023-04-19T21:00:33.659Z,2.00
2023-04-19T21:03:00.806Z,1.57
2023-04-19T21:05:27.920Z,2.47
2023-04-19T21:07:54.938Z,2.13
2023-04-19T21:10:24.517Z,2.83
2023-04-19T21:12:51.940Z,1.93
2023-04-19T21:15:18.722Z,2.20
2023-04-19T21:17:46.375Z,1.93
2023-04-19T21:20:14.616Z,2.33
2023-04-19T21:22:42.393Z,2.17
2023-04-19T21:25:10.539Z,2.27
2023-04-19T21:27:37.450Z,1.93
2023-04-19T21:30:05.715Z,2.40
2023-04-19T21:32:33.391Z,2.37
2023-04-19T21:35:01.336Z,2.20
2023-04-19T21:37:28.773Z,2.40
2023-04-19T21:40:07.009Z,2.47
2023-04-19T21:42:33.784Z,2.00
2023-04-19T21:45:00.518Z,2.13
2023-04-19T21:47:27.687Z,2.20
2023-04-19T21:49:56.569Z,2.40
2023-04-19T21:52:23.384Z,2.30
2023-04-19T21:54:50.149Z,2.33
2023-04-19T21:57:19.452Z,2.40
2023-04-19T21:59:46.252Z,2.30
2023-04-19T22:02:13.326Z,2.40
2023-04-19T22:04:42.807Z,2.13
2023-04-19T22:07:12.440Z,2.63
2023-04-19T22:09:39.548Z,2.10
2023-04-19T22:12:07.012Z,2.40
2023-04-19T22:14:34.434Z,2.10
2023-04-19T22:17:02.939Z,2.20
2023-04-19T22:19:30.124Z,2.20
2023-04-19T22:21:57.425Z,3.10
2023-04-19T22:24:24.800Z,2.47
2023-04-19T22:26:53.235Z,2.80
2023-04-19T22:29:20.530Z,2.13
2023-04-19T22:31:47.829Z,2.40
2023-04-19T22:34:15.019Z,2.40
2023-04-19T22:36:41.821Z,2.53
2023-04-19T22:39:09.162Z,2.33
2023-04-19T22:41:35.950Z,2.60
2023-04-19T22:44:03.474Z,2.27
2023-04-19T22:46:31.020Z,2.53
2023-04-19T22:48:57.962Z,2.50
2023-04-19T22:51:24.849Z,2.60
2023-04-19T22:53:51.532Z,2.57
2023-04-19T22:56:18.569Z,2.70
2023-04-19T22:58:45.332Z,2.60
2023-04-19T23:01:12.117Z,2.37
2023-04-19T23:03:39.037Z,2.50
2023-04-19T23:06:07.190Z,2.83
2023-04-19T23:08:35.387Z,2.40
2023-04-19T23:11:02.315Z,2.47
2023-04-19T23:13:29.054Z,2.70
2023-04-19T23:15:55.906Z,2.53
2023-04-19T23:18:22.705Z,2.40
2023-04-19T23:20:49.495Z,2.33
2023-04-19T23:23:16.256Z,2.60
2023-04-19T23:25:43.705Z,2.43
2023-04-19T23:28:12.523Z,2.17
2023-04-19T23:30:39.540Z,2.43
2023-04-19T23:33:06.520Z,2.03
2023-04-19T23:35:33.299Z,2.67
2023-04-19T23:38:00.164Z,2.47
2023-04-19T23:40:26.883Z,2.90
2023-04-19T23:42:53.729Z,2.57
2023-04-19T23:45:20.601Z,2.67
2023-04-19T23:47:47.385Z,2.40
2023-04-19T23:50:14.175Z,2.30
2023-04-19T23:52:41.079Z,2.43
2023-04-19T23:55:08.107Z,2.37
2023-04-19T23:57:35.840Z,2.67
